East Chevington, United Kingdom
Current Conditions -  °F | °C
As of 4:50 AM on Thursday 23 Oct 2014 (Local Time) from EGQM Reporting Station
Overcast Overcast  
Wind Chill: 54°   Ceiling: 15000
Heat Index: 54°   Visibility: 6mi
Dew Point: 48°   Wind: 24mph
Humidity: 82%   Direction: 250°WSW
Pressure: 29.85"   Gusts: NA
Location:  55.28°N, 1.58°W
Report Text: EGQM 230350Z AUTO 25021KT 9999 FEW080/// OVC150/// 12/09 Q1011
Loading
Personal Weather Stations






























Interactive Weather Map
Tropical Storm Tracking
New forecast layout! Learn more

10-Day Weather Forecast

Advertisements
Track Severe Weather on mobile